sensor_id;sensor_type;location;lat;lon;timestamp;pressure;altitude;pressure_sealevel;temperature;humidity
45078;BME280;60508;42.622;25.416;2022-10-13T00:00:45;97552.06;;;13.76;58.94
45078;BME280;60508;42.622;25.416;2022-10-13T00:03:11;97560.22;;;13.64;60.13
45078;BME280;60508;42.622;25.416;2022-10-13T00:05:42;97563.31;;;13.56;60.76
45078;BME280;60508;42.622;25.416;2022-10-13T00:08:10;97561.16;;;13.41;60.22
45078;BME280;60508;42.622;25.416;2022-10-13T00:10:41;97561.50;;;13.16;61.41
45078;BME280;60508;42.622;25.416;2022-10-13T00:13:10;97557.78;;;12.65;62.59
45078;BME280;60508;42.622;25.416;2022-10-13T00:15:37;97558.13;;;12.45;63.36
45078;BME280;60508;42.622;25.416;2022-10-13T00:18:04;97561.66;;;12.57;63.28
45078;BME280;60508;42.622;25.416;2022-10-13T00:20:30;97562.81;;;12.49;63.18
45078;BME280;60508;42.622;25.416;2022-10-13T00:22:56;97558.84;;;12.40;64.81
45078;BME280;60508;42.622;25.416;2022-10-13T00:25:22;97552.56;;;12.22;65.76
45078;BME280;60508;42.622;25.416;2022-10-13T00:27:48;97555.81;;;12.36;65.85
45078;BME280;60508;42.622;25.416;2022-10-13T00:30:14;97553.94;;;12.49;64.98
45078;BME280;60508;42.622;25.416;2022-10-13T00:32:40;97555.06;;;12.53;63.43
45078;BME280;60508;42.622;25.416;2022-10-13T00:35:06;97560.38;;;12.48;63.66
45078;BME280;60508;42.622;25.416;2022-10-13T00:37:33;97539.50;;;12.43;64.20
45078;BME280;60508;42.622;25.416;2022-10-13T00:39:59;97549.25;;;12.44;64.06
45078;BME280;60508;42.622;25.416;2022-10-13T00:42:25;97553.94;;;12.49;64.39
45078;BME280;60508;42.622;25.416;2022-10-13T00:45:04;97549.72;;;12.41;64.07
45078;BME280;60508;42.622;25.416;2022-10-13T00:47:40;97549.47;;;12.19;65.35
45078;BME280;60508;42.622;25.416;2022-10-13T00:50:10;97544.91;;;11.96;66.98
45078;BME280;60508;42.622;25.416;2022-10-13T00:52:38;97548.75;;;11.88;67.67
45078;BME280;60508;42.622;25.416;2022-10-13T00:55:05;97540.44;;;11.90;68.39
45078;BME280;60508;42.622;25.416;2022-10-13T00:57:32;97543.59;;;11.86;68.38
45078;BME280;60508;42.622;25.416;2022-10-13T00:59:59;97534.81;;;11.79;69.07
45078;BME280;60508;42.622;25.416;2022-10-13T01:02:30;97544.75;;;11.79;69.24
45078;BME280;60508;42.622;25.416;2022-10-13T01:04:57;97545.47;;;11.74;69.51
45078;BME280;60508;42.622;25.416;2022-10-13T01:07:23;97544.75;;;11.79;69.46
45078;BME280;60508;42.622;25.416;2022-10-13T01:09:50;97544.28;;;11.82;69.39
45078;BME280;60508;42.622;25.416;2022-10-13T01:12:38;97547.34;;;11.85;69.19
45078;BME280;60508;42.622;25.416;2022-10-13T01:20:31;97550.34;;;11.65;69.78
45078;BME280;60508;42.622;25.416;2022-10-13T01:23:23;97537.22;;;11.57;70.12
45078;BME280;60508;42.622;25.416;2022-10-13T01:29:13;97533.75;;;11.68;69.10
45078;BME280;60508;42.622;25.416;2022-10-13T01:34:35;97524.78;;;11.44;69.60
45078;BME280;60508;42.622;25.416;2022-10-13T01:40:06;97530.00;;;11.69;68.48
45078;BME280;60508;42.622;25.416;2022-10-13T01:42:52;97524.50;;;11.76;69.28
45078;BME280;60508;42.622;25.416;2022-10-13T01:45:24;97530.69;;;11.77;69.20
45078;BME280;60508;42.622;25.416;2022-10-13T01:47:54;97528.00;;;11.77;69.26
45078;BME280;60508;42.622;25.416;2022-10-13T01:50:20;97522.75;;;11.70;69.42
45078;BME280;60508;42.622;25.416;2022-10-13T01:52:48;97516.28;;;11.59;69.71
45078;BME280;60508;42.622;25.416;2022-10-13T01:55:15;97510.31;;;11.45;70.11
45078;BME280;60508;42.622;25.416;2022-10-13T01:57:43;97517.06;;;11.36;69.99
45078;BME280;60508;42.622;25.416;2022-10-13T02:00:13;97515.72;;;11.27;69.93
45078;BME280;60508;42.622;25.416;2022-10-13T02:03:14;97503.94;;;11.28;70.13
45078;BME280;60508;42.622;25.416;2022-10-13T02:05:49;97502.66;;;11.30;69.89
45078;BME280;60508;42.622;25.416;2022-10-13T02:08:23;97497.88;;;11.32;69.59
45078;BME280;60508;42.622;25.416;2022-10-13T02:11:00;97506.75;;;11.33;69.57
45078;BME280;60508;42.622;25.416;2022-10-13T02:13:35;97504.16;;;11.26;69.81
45078;BME280;60508;42.622;25.416;2022-10-13T02:16:05;97504.41;;;11.25;69.82
45078;BME280;60508;42.622;25.416;2022-10-13T02:18:33;97492.81;;;11.24;69.73
45078;BME280;60508;42.622;25.416;2022-10-13T02:21:01;97493.72;;;11.18;69.53
45078;BME280;60508;42.622;25.416;2022-10-13T02:23:28;97500.84;;;11.12;70.09
45078;BME280;60508;42.622;25.416;2022-10-13T02:25:56;97500.59;;;11.02;70.16
45078;BME280;60508;42.622;25.416;2022-10-13T02:28:24;97493.34;;;10.72;71.42
45078;BME280;60508;42.622;25.416;2022-10-13T02:30:50;97489.03;;;10.83;71.47
45078;BME280;60508;42.622;25.416;2022-10-13T02:33:16;97492.84;;;10.94;71.32
45078;BME280;60508;42.622;25.416;2022-10-13T02:35:42;97491.47;;;11.03;71.01
45078;BME280;60508;42.622;25.416;2022-10-13T02:38:09;97485.88;;;11.05;70.27
45078;BME280;60508;42.622;25.416;2022-10-13T02:40:35;97484.53;;;10.95;70.45
45078;BME280;60508;42.622;25.416;2022-10-13T02:43:02;97487.13;;;11.02;70.80
45078;BME280;60508;42.622;25.416;2022-10-13T02:45:29;97490.91;;;11.13;70.66
45078;BME280;60508;42.622;25.416;2022-10-13T02:47:55;97489.03;;;11.13;70.63
45078;BME280;60508;42.622;25.416;2022-10-13T02:50:22;97498.16;;;11.12;70.84
45078;BME280;60508;42.622;25.416;2022-10-13T02:52:49;97487.72;;;11.04;70.33
45078;BME280;60508;42.622;25.416;2022-10-13T02:55:15;97487.94;;;11.03;70.35
45078;BME280;60508;42.622;25.416;2022-10-13T02:57:42;97484.91;;;10.99;70.95
45078;BME280;60508;42.622;25.416;2022-10-13T03:00:09;97486.56;;;11.00;71.30
45078;BME280;60508;42.622;25.416;2022-10-13T03:02:34;97488.22;;;10.83;70.02
45078;BME280;60508;42.622;25.416;2022-10-13T03:05:00;97482.63;;;10.84;70.70
45078;BME280;60508;42.622;25.416;2022-10-13T03:07:26;97488.00;;;10.84;70.98
45078;BME280;60508;42.622;25.416;2022-10-13T03:09:52;97477.72;;;10.81;73.39
45078;BME280;60508;42.622;25.416;2022-10-13T03:12:18;97477.66;;;10.69;71.83
45078;BME280;60508;42.622;25.416;2022-10-13T03:14:45;97481.03;;;10.65;72.28
45078;BME280;60508;42.622;25.416;2022-10-13T03:17:11;97480.06;;;10.59;72.41
45078;BME280;60508;42.622;25.416;2022-10-13T03:19:37;97480.50;;;10.56;72.84
45078;BME280;60508;42.622;25.416;2022-10-13T03:22:03;97477.31;;;10.29;73.61
45078;BME280;60508;42.622;25.416;2022-10-13T03:24:29;97486.75;;;10.31;72.89
45078;BME280;60508;42.622;25.416;2022-10-13T03:26:55;97485.59;;;10.27;73.50
45078;BME280;60508;42.622;25.416;2022-10-13T03:29:21;97482.00;;;10.15;74.74
45078;BME280;60508;42.622;25.416;2022-10-13T03:31:47;97479.09;;;10.16;74.43
45078;BME280;60508;42.622;25.416;2022-10-13T03:34:15;97477.00;;;10.18;74.23
45078;BME280;60508;42.622;25.416;2022-10-13T03:36:41;97473.63;;;10.23;74.71
45078;BME280;60508;42.622;25.416;2022-10-13T03:39:07;97475.31;;;10.43;74.23
45078;BME280;60508;42.622;25.416;2022-10-13T03:41:33;97479.78;;;10.49;74.17
45078;BME280;60508;42.622;25.416;2022-10-13T03:43:59;97484.66;;;10.70;73.01
45078;BME280;60508;42.622;25.416;2022-10-13T03:46:27;97487.75;;;10.74;71.52
45078;BME280;60508;42.622;25.416;2022-10-13T03:48:56;97478.78;;;10.62;72.02
45078;BME280;60508;42.622;25.416;2022-10-13T03:51:22;97482.00;;;10.52;72.18
45078;BME280;60508;42.622;25.416;2022-10-13T03:53:50;97482.19;;;10.38;73.00
45078;BME280;60508;42.622;25.416;2022-10-13T03:56:20;97474.78;;;10.34;73.53
45078;BME280;60508;42.622;25.416;2022-10-13T03:58:54;97484.91;;;10.13;74.87
45078;BME280;60508;42.622;25.416;2022-10-13T04:01:21;97484.22;;;10.18;75.41
45078;BME280;60508;42.622;25.416;2022-10-13T04:03:49;97467.06;;;10.19;75.60
45078;BME280;60508;42.622;25.416;2022-10-13T04:06:15;97464.78;;;10.22;75.12
45078;BME280;60508;42.622;25.416;2022-10-13T04:08:41;97457.16;;;10.19;75.14
45078;BME280;60508;42.622;25.416;2022-10-13T04:11:10;97462.59;;;10.31;75.72
45078;BME280;60508;42.622;25.416;2022-10-13T04:13:40;97465.00;;;10.39;75.02
45078;BME280;60508;42.622;25.416;2022-10-13T04:16:08;97464.19;;;10.39;75.16
45078;BME280;60508;42.622;25.416;2022-10-13T04:18:37;97461.94;;;10.36;75.43
45078;BME280;60508;42.622;25.416;2022-10-13T04:21:12;97470.50;;;10.26;75.36
45078;BME280;60508;42.622;25.416;2022-10-13T04:23:39;97463.63;;;10.30;76.16
45078;BME280;60508;42.622;25.416;2022-10-13T04:26:05;97462.16;;;10.34;75.73
45078;BME280;60508;42.622;25.416;2022-10-13T04:28:32;97462.00;;;10.29;76.21
45078;BME280;60508;42.622;25.416;2022-10-13T04:31:03;97466.28;;;10.37;75.60
45078;BME280;60508;42.622;25.416;2022-10-13T04:33:29;97469.84;;;10.49;75.62
45078;BME280;60508;42.622;25.416;2022-10-13T04:35:56;97456.53;;;10.54;74.62
45078;BME280;60508;42.622;25.416;2022-10-13T04:38:22;97460.53;;;10.52;74.46
45078;BME280;60508;42.622;25.416;2022-10-13T04:40:48;97459.31;;;10.48;74.44
45078;BME280;60508;42.622;25.416;2022-10-13T04:43:14;97456.19;;;10.51;74.62
45078;BME280;60508;42.622;25.416;2022-10-13T04:45:41;97462.88;;;10.60;74.08
45078;BME280;60508;42.622;25.416;2022-10-13T04:48:07;97460.88;;;10.55;73.49
45078;BME280;60508;42.622;25.416;2022-10-13T04:50:33;97459.09;;;10.49;73.57
45078;BME280;60508;42.622;25.416;2022-10-13T04:52:59;97464.25;;;10.51;72.98
45078;BME280;60508;42.622;25.416;2022-10-13T04:55:25;97461.78;;;10.49;71.88
45078;BME280;60508;42.622;25.416;2022-10-13T04:57:52;97461.78;;;10.49;72.12
45078;BME280;60508;42.622;25.416;2022-10-13T05:00:18;97459.97;;;10.62;72.73
45078;BME280;60508;42.622;25.416;2022-10-13T05:02:44;97476.16;;;10.73;72.68
45078;BME280;60508;42.622;25.416;2022-10-13T05:05:11;97466.72;;;10.83;71.84
45078;BME280;60508;42.622;25.416;2022-10-13T05:07:37;97471.44;;;10.87;71.24
45078;BME280;60508;42.622;25.416;2022-10-13T05:10:06;97465.91;;;10.82;71.34
45078;BME280;60508;42.622;25.416;2022-10-13T05:12:32;97468.44;;;10.77;71.92
45078;BME280;60508;42.622;25.416;2022-10-13T05:14:57;97463.91;;;10.77;71.91
45078;BME280;60508;42.622;25.416;2022-10-13T05:17:24;97471.53;;;10.81;71.76
45078;BME280;60508;42.622;25.416;2022-10-13T05:19:51;97471.88;;;10.84;71.92
45078;BME280;60508;42.622;25.416;2022-10-13T05:22:17;97487.91;;;10.91;72.03
45078;BME280;60508;42.622;25.416;2022-10-13T05:24:43;97475.44;;;10.96;71.72
45078;BME280;60508;42.622;25.416;2022-10-13T05:27:11;97495.56;;;11.06;71.69
45078;BME280;60508;42.622;25.416;2022-10-13T05:29:38;97486.25;;;11.20;71.14
45078;BME280;60508;42.622;25.416;2022-10-13T05:32:05;97481.44;;;11.22;71.17
45078;BME280;60508;42.622;25.416;2022-10-13T05:34:31;97493.75;;;11.30;71.13
45078;BME280;60508;42.622;25.416;2022-10-13T05:36:58;97494.72;;;11.36;71.01
45078;BME280;60508;42.622;25.416;2022-10-13T05:39:24;97495.53;;;11.36;71.05
45078;BME280;60508;42.622;25.416;2022-10-13T05:41:50;97500.47;;;11.51;70.66
45078;BME280;60508;42.622;25.416;2022-10-13T05:44:19;97503.28;;;11.56;70.23
45078;BME280;60508;42.622;25.416;2022-10-13T05:46:52;97510.31;;;11.69;70.09
45078;BME280;60508;42.622;25.416;2022-10-13T05:49:18;97520.50;;;11.79;69.93
45078;BME280;60508;42.622;25.416;2022-10-13T05:51:50;97510.13;;;11.94;69.49
45078;BME280;60508;42.622;25.416;2022-10-13T05:54:26;97508.28;;;12.07;69.23
45078;BME280;60508;42.622;25.416;2022-10-13T05:57:14;97516.22;;;12.25;68.46
45078;BME280;60508;42.622;25.416;2022-10-13T05:59:46;97520.06;;;12.41;67.85
45078;BME280;60508;42.622;25.416;2022-10-13T06:02:14;97523.44;;;12.60;67.19
45078;BME280;60508;42.622;25.416;2022-10-13T06:04:45;97525.63;;;12.75;66.77
45078;BME280;60508;42.622;25.416;2022-10-13T06:07:12;97515.75;;;12.81;66.49
45078;BME280;60508;42.622;25.416;2022-10-13T06:09:39;97518.56;;;12.86;66.23
45078;BME280;60508;42.622;25.416;2022-10-13T06:12:06;97524.13;;;12.96;66.39
45078;BME280;60508;42.622;25.416;2022-10-13T06:14:33;97511.91;;;13.05;65.98
45078;BME280;60508;42.622;25.416;2022-10-13T06:17:03;97522.97;;;13.21;65.63
45078;BME280;60508;42.622;25.416;2022-10-13T06:19:29;97521.28;;;13.31;65.21
45078;BME280;60508;42.622;25.416;2022-10-13T06:21:56;97522.56;;;13.41;65.09
45078;BME280;60508;42.622;25.416;2022-10-13T06:24:22;97527.25;;;13.45;64.94
45078;BME280;60508;42.622;25.416;2022-10-13T06:26:48;97518.41;;;13.50;64.09
45078;BME280;60508;42.622;25.416;2022-10-13T06:29:14;97527.88;;;13.52;64.05
45078;BME280;60508;42.622;25.416;2022-10-13T06:31:40;97521.75;;;13.57;64.26
45078;BME280;60508;42.622;25.416;2022-10-13T06:34:07;97522.66;;;13.63;63.07
45078;BME280;60508;42.622;25.416;2022-10-13T06:36:33;97519.72;;;13.64;63.43
45078;BME280;60508;42.622;25.416;2022-10-13T06:38:59;97526.09;;;13.75;63.15
45078;BME280;60508;42.622;25.416;2022-10-13T06:41:25;97528.63;;;13.82;63.04
45078;BME280;60508;42.622;25.416;2022-10-13T06:43:51;97530.34;;;13.88;62.58
45078;BME280;60508;42.622;25.416;2022-10-13T06:46:17;97520.03;;;14.02;62.03
45078;BME280;60508;42.622;25.416;2022-10-13T06:48:44;97511.34;;;14.17;62.18
45078;BME280;60508;42.622;25.416;2022-10-13T06:51:10;97521.22;;;14.28;61.86
45078;BME280;60508;42.622;25.416;2022-10-13T06:53:36;97511.03;;;14.35;61.11
45078;BME280;60508;42.622;25.416;2022-10-13T06:56:04;97517.16;;;14.48;61.14
45078;BME280;60508;42.622;25.416;2022-10-13T06:58:33;97520.59;;;14.60;60.81
45078;BME280;60508;42.622;25.416;2022-10-13T07:00:59;97525.56;;;14.68;60.18
45078;BME280;60508;42.622;25.416;2022-10-13T07:03:25;97521.69;;;14.81;60.37
45078;BME280;60508;42.622;25.416;2022-10-13T07:05:52;97521.44;;;14.83;60.31
45078;BME280;60508;42.622;25.416;2022-10-13T07:08:18;97512.59;;;14.92;60.31
45078;BME280;60508;42.622;25.416;2022-10-13T07:10:45;97508.44;;;15.07;59.20
45078;BME280;60508;42.622;25.416;2022-10-13T07:13:11;97512.69;;;15.25;58.69
45078;BME280;60508;42.622;25.416;2022-10-13T07:15:38;97506.78;;;15.33;58.84
45078;BME280;60508;42.622;25.416;2022-10-13T07:18:04;97508.28;;;15.46;58.48
45078;BME280;60508;42.622;25.416;2022-10-13T07:20:32;97508.13;;;15.63;57.48
45078;BME280;60508;42.622;25.416;2022-10-13T07:22:58;97513.16;;;15.76;57.47
45078;BME280;60508;42.622;25.416;2022-10-13T07:25:25;97512.19;;;15.87;57.06
45078;BME280;60508;42.622;25.416;2022-10-13T07:27:51;97501.09;;;15.94;56.93
45078;BME280;60508;42.622;25.416;2022-10-13T07:30:17;97507.28;;;15.84;57.21
45078;BME280;60508;42.622;25.416;2022-10-13T07:32:46;97501.28;;;15.82;57.53
45078;BME280;60508;42.622;25.416;2022-10-13T07:35:13;97504.09;;;15.98;57.15
45078;BME280;60508;42.622;25.416;2022-10-13T07:37:39;97496.63;;;16.15;56.54
45078;BME280;60508;42.622;25.416;2022-10-13T07:40:06;97502.22;;;16.41;56.24
45078;BME280;60508;42.622;25.416;2022-10-13T07:42:33;97493.66;;;16.70;54.90
45078;BME280;60508;42.622;25.416;2022-10-13T07:44:59;97496.72;;;16.89;54.10
45078;BME280;60508;42.622;25.416;2022-10-13T07:47:28;97485.06;;;16.98;53.69
45078;BME280;60508;42.622;25.416;2022-10-13T07:49:55;97489.47;;;17.15;52.94
45078;BME280;60508;42.622;25.416;2022-10-13T07:52:22;97483.25;;;17.40;52.07
45078;BME280;60508;42.622;25.416;2022-10-13T07:54:49;97488.41;;;17.52;51.45
45078;BME280;60508;42.622;25.416;2022-10-13T07:57:15;97478.91;;;17.60;51.46
45078;BME280;60508;42.622;25.416;2022-10-13T07:59:41;97478.66;;;17.77;51.03
45078;BME280;60508;42.622;25.416;2022-10-13T08:02:12;97472.69;;;18.05;50.44
45078;BME280;60508;42.622;25.416;2022-10-13T08:04:39;97478.66;;;18.08;49.96
45078;BME280;60508;42.622;25.416;2022-10-13T08:07:05;97459.63;;;18.08;49.88
45078;BME280;60508;42.622;25.416;2022-10-13T08:09:33;97466.66;;;18.19;49.32
45078;BME280;60508;42.622;25.416;2022-10-13T08:11:59;97468.78;;;18.42;48.56
45078;BME280;60508;42.622;25.416;2022-10-13T08:14:25;97462.75;;;18.51;48.51
45078;BME280;60508;42.622;25.416;2022-10-13T08:16:51;97465.47;;;18.46;48.45
45078;BME280;60508;42.622;25.416;2022-10-13T08:19:18;97471.72;;;18.51;48.25
45078;BME280;60508;42.622;25.416;2022-10-13T08:21:47;97469.31;;;18.45;48.37
45078;BME280;60508;42.622;25.416;2022-10-13T08:24:15;97466.59;;;18.39;48.71
45078;BME280;60508;42.622;25.416;2022-10-13T08:26:42;97463.03;;;18.44;48.62
45078;BME280;60508;42.622;25.416;2022-10-13T08:29:08;97465.91;;;18.78;47.74
45078;BME280;60508;42.622;25.416;2022-10-13T08:31:35;97464.94;;;19.48;46.07
45078;BME280;60508;42.622;25.416;2022-10-13T08:34:01;97461.41;;;20.12;44.07
45078;BME280;60508;42.622;25.416;2022-10-13T08:36:27;97461.38;;;20.65;42.71
45078;BME280;60508;42.622;25.416;2022-10-13T08:38:53;97456.03;;;21.36;41.10
45078;BME280;60508;42.622;25.416;2022-10-13T08:41:24;97458.00;;;22.01;38.94
45078;BME280;60508;42.622;25.416;2022-10-13T08:43:55;97453.78;;;22.65;37.62
45078;BME280;60508;42.622;25.416;2022-10-13T08:46:27;97446.22;;;23.12;36.82
45078;BME280;60508;42.622;25.416;2022-10-13T08:48:56;97454.59;;;24.69;34.55
45078;BME280;60508;42.622;25.416;2022-10-13T08:51:24;97459.22;;;26.43;30.76
45078;BME280;60508;42.622;25.416;2022-10-13T08:53:50;97467.69;;;27.69;29.14
45078;BME280;60508;42.622;25.416;2022-10-13T08:56:46;97464.50;;;29.49;26.28
45078;BME280;60508;42.622;25.416;2022-10-13T08:59:17;97456.72;;;32.70;23.18
45078;BME280;60508;42.622;25.416;2022-10-13T09:01:44;97461.09;;;34.71;20.32
45078;BME280;60508;42.622;25.416;2022-10-13T09:04:37;97461.28;;;35.59;18.65
45078;BME280;60508;42.622;25.416;2022-10-13T09:07:12;97460.94;;;34.98;19.14
45078;BME280;60508;42.622;25.416;2022-10-13T09:09:40;97457.91;;;36.88;17.28
45078;BME280;60508;42.622;25.416;2022-10-13T09:12:06;97459.50;;;36.25;17.64
45078;BME280;60508;42.622;25.416;2022-10-13T09:14:36;97453.81;;;35.96;17.54
45078;BME280;60508;42.622;25.416;2022-10-13T09:17:35;97455.25;;;35.57;17.47
45078;BME280;60508;42.622;25.416;2022-10-13T09:25:46;97447.44;;;37.32;16.36
45078;BME280;60508;42.622;25.416;2022-10-13T09:28:18;97453.09;;;36.96;16.27
45078;BME280;60508;42.622;25.416;2022-10-13T09:30:45;97450.50;;;35.65;17.27
45078;BME280;60508;42.622;25.416;2022-10-13T09:38:10;97443.28;;;35.57;17.33
45078;BME280;60508;42.622;25.416;2022-10-13T09:40:38;97449.66;;;37.84;15.84
45078;BME280;60508;42.622;25.416;2022-10-13T09:44:07;97457.56;;;39.08;14.92
45078;BME280;60508;42.622;25.416;2022-10-13T09:46:33;97450.19;;;39.87;14.81
45078;BME280;60508;42.622;25.416;2022-10-13T09:49:57;97442.09;;;41.18;13.71
45078;BME280;60508;42.622;25.416;2022-10-13T09:52:02;97433.59;;;41.62;13.07
45078;BME280;60508;42.622;25.416;2022-10-13T09:57:20;97431.66;;;40.72;13.25
45078;BME280;60508;42.622;25.416;2022-10-13T09:59:48;97433.19;;;41.00;13.65
45078;BME280;60508;42.622;25.416;2022-10-13T10:02:25;97427.69;;;39.60;13.74
45078;BME280;60508;42.622;25.416;2022-10-13T10:04:55;97411.16;;;39.93;13.97
45078;BME280;60508;42.622;25.416;2022-10-13T10:07:26;97419.09;;;41.60;12.57
45078;BME280;60508;42.622;25.416;2022-10-13T10:10:02;97420.03;;;42.92;11.63
45078;BME280;60508;42.622;25.416;2022-10-13T10:12:31;97402.16;;;42.49;11.60
45078;BME280;60508;42.622;25.416;2022-10-13T10:15:00;97406.28;;;40.95;12.29
45078;BME280;60508;42.622;25.416;2022-10-13T10:20:28;97404.72;;;38.93;13.90
45078;BME280;60508;42.622;25.416;2022-10-13T10:23:01;97380.72;;;36.77;15.40
45078;BME280;60508;42.622;25.416;2022-10-13T10:25:43;97386.66;;;38.48;14.21
45078;BME280;60508;42.622;25.416;2022-10-13T10:28:17;97380.44;;;37.59;14.68
45078;BME280;60508;42.622;25.416;2022-10-13T10:30:56;97363.59;;;39.13;14.35
45078;BME280;60508;42.622;25.416;2022-10-13T10:37:01;97358.53;;;38.07;14.73
45078;BME280;60508;42.622;25.416;2022-10-13T10:39:39;97362.94;;;41.49;12.73
45078;BME280;60508;42.622;25.416;2022-10-13T10:45:15;97354.84;;;42.83;11.83
45078;BME280;60508;42.622;25.416;2022-10-13T10:47:44;97360.75;;;43.73;11.35
45078;BME280;60508;42.622;25.416;2022-10-13T10:50:16;97354.31;;;45.07;10.60
45078;BME280;60508;42.622;25.416;2022-10-13T10:52:52;97350.94;;;44.99;10.43
45078;BME280;60508;42.622;25.416;2022-10-13T10:55:28;97335.69;;;41.95;12.01
45078;BME280;60508;42.622;25.416;2022-10-13T11:01:02;97330.59;;;38.83;14.22
45078;BME280;60508;42.622;25.416;2022-10-13T11:08:44;97316.25;;;40.21;13.24
45078;BME280;60508;42.622;25.416;2022-10-13T11:13:52;97309.16;;;41.76;12.08
45078;BME280;60508;42.622;25.416;2022-10-13T11:22:09;97295.41;;;41.78;11.73
45078;BME280;60508;42.622;25.416;2022-10-13T11:40:31;97282.03;;;42.45;10.52
45078;BME280;60508;42.622;25.416;2022-10-13T11:51:36;97263.47;;;41.82;10.91
45078;BME280;60508;42.622;25.416;2022-10-13T11:54:34;97257.09;;;41.94;10.83
45078;BME280;60508;42.622;25.416;2022-10-13T11:57:17;97262.28;;;40.26;11.73
45078;BME280;60508;42.622;25.416;2022-10-13T11:59:48;97260.00;;;43.24;10.30
45078;BME280;60508;42.622;25.416;2022-10-13T12:02:17;97257.19;;;43.88;9.47
45078;BME280;60508;42.622;25.416;2022-10-13T12:04:44;97260.13;;;43.33;9.44
45078;BME280;60508;42.622;25.416;2022-10-13T12:07:24;97248.44;;;41.68;10.21
45078;BME280;60508;42.622;25.416;2022-10-13T12:09:55;97253.97;;;42.38;9.95
45078;BME280;60508;42.622;25.416;2022-10-13T12:12:23;97253.66;;;43.33;9.28
45078;BME280;60508;42.622;25.416;2022-10-13T12:14:52;97247.75;;;41.97;10.05
45078;BME280;60508;42.622;25.416;2022-10-13T12:17:30;97252.59;;;41.11;10.87
45078;BME280;60508;42.622;25.416;2022-10-13T12:20:03;97241.19;;;40.58;10.95
45078;BME280;60508;42.622;25.416;2022-10-13T12:22:47;97252.91;;;43.45;8.98
45078;BME280;60508;42.622;25.416;2022-10-13T12:25:18;97236.38;;;41.35;9.50
45078;BME280;60508;42.622;25.416;2022-10-13T12:27:47;97235.13;;;43.70;8.73
45078;BME280;60508;42.622;25.416;2022-10-13T12:30:22;97234.00;;;44.28;8.16
45078;BME280;60508;42.622;25.416;2022-10-13T12:32:51;97235.41;;;44.90;8.01
45078;BME280;60508;42.622;25.416;2022-10-13T12:35:27;97234.75;;;44.86;8.45
45078;BME280;60508;42.622;25.416;2022-10-13T12:37:54;97243.16;;;43.20;8.89
45078;BME280;60508;42.622;25.416;2022-10-13T12:40:22;97225.19;;;43.79;9.10
45078;BME280;60508;42.622;25.416;2022-10-13T12:42:48;97233.53;;;43.69;9.21
45078;BME280;60508;42.622;25.416;2022-10-13T12:45:17;97226.59;;;42.93;9.92
45078;BME280;60508;42.622;25.416;2022-10-13T12:47:47;97232.88;;;45.14;8.82
45078;BME280;60508;42.622;25.416;2022-10-13T12:53:17;97213.84;;;42.30;10.32
45078;BME280;60508;42.622;25.416;2022-10-13T12:58:21;97211.09;;;40.31;11.87
45078;BME280;60508;42.622;25.416;2022-10-13T13:03:44;97196.78;;;37.89;13.29
45078;BME280;60508;42.622;25.416;2022-10-13T13:08:41;97191.31;;;37.75;13.64
45078;BME280;60508;42.622;25.416;2022-10-13T13:11:21;97182.50;;;39.14;12.62
45078;BME280;60508;42.622;25.416;2022-10-13T13:13:48;97186.22;;;40.49;11.89
45078;BME280;60508;42.622;25.416;2022-10-13T13:16:21;97187.53;;;39.54;12.58
45078;BME280;60508;42.622;25.416;2022-10-13T13:18:50;97189.03;;;36.96;14.21
45078;BME280;60508;42.622;25.416;2022-10-13T13:21:18;97182.63;;;38.42;13.52
45078;BME280;60508;42.622;25.416;2022-10-13T13:23:46;97185.59;;;38.93;13.27
45078;BME280;60508;42.622;25.416;2022-10-13T13:26:20;97177.88;;;38.69;13.47
45078;BME280;60508;42.622;25.416;2022-10-13T13:31:16;97172.91;;;36.33;15.85
45078;BME280;60508;42.622;25.416;2022-10-13T13:33:43;97171.63;;;36.55;15.86
45078;BME280;60508;42.622;25.416;2022-10-13T13:36:20;97174.75;;;37.42;15.46
45078;BME280;60508;42.622;25.416;2022-10-13T13:38:51;97176.69;;;37.94;14.65
45078;BME280;60508;42.622;25.416;2022-10-13T13:41:18;97172.47;;;38.17;14.48
45078;BME280;60508;42.622;25.416;2022-10-13T13:43:44;97175.53;;;37.43;15.01
45078;BME280;60508;42.622;25.416;2022-10-13T13:46:16;97170.16;;;37.63;15.34
45078;BME280;60508;42.622;25.416;2022-10-13T13:48:42;97172.78;;;37.36;15.74
45078;BME280;60508;42.622;25.416;2022-10-13T13:51:09;97175.81;;;35.32;16.93
45078;BME280;60508;42.622;25.416;2022-10-13T13:53:35;97165.00;;;35.38;17.10
45078;BME280;60508;42.622;25.416;2022-10-13T13:56:01;97162.09;;;36.39;16.24
45078;BME280;60508;42.622;25.416;2022-10-13T13:58:27;97168.50;;;36.39;16.30
45078;BME280;60508;42.622;25.416;2022-10-13T14:00:53;97177.53;;;36.76;16.20
45078;BME280;60508;42.622;25.416;2022-10-13T14:03:19;97171.41;;;37.55;15.70
45078;BME280;60508;42.622;25.416;2022-10-13T14:05:45;97175.25;;;36.45;16.25
45078;BME280;60508;42.622;25.416;2022-10-13T14:08:13;97177.78;;;35.93;16.54
45078;BME280;60508;42.622;25.416;2022-10-13T14:10:39;97172.59;;;35.55;17.00
45078;BME280;60508;42.622;25.416;2022-10-13T14:13:06;97181.09;;;34.46;17.94
45078;BME280;60508;42.622;25.416;2022-10-13T14:15:32;97174.41;;;34.72;17.68
45078;BME280;60508;42.622;25.416;2022-10-13T14:18:00;97175.44;;;32.86;19.09
45078;BME280;60508;42.622;25.416;2022-10-13T14:20:26;97173.63;;;33.01;19.29
45078;BME280;60508;42.622;25.416;2022-10-13T14:22:52;97178.09;;;32.72;20.26
45078;BME280;60508;42.622;25.416;2022-10-13T14:25:18;97179.09;;;31.49;22.08
45078;BME280;60508;42.622;25.416;2022-10-13T14:27:44;97170.44;;;29.75;24.81
45078;BME280;60508;42.622;25.416;2022-10-13T14:30:12;97167.22;;;27.96;26.10
45078;BME280;60508;42.622;25.416;2022-10-13T14:32:38;97174.59;;;27.55;26.67